sensor_id;sensor_type;location;lat;lon;timestamp;temperature;humidity
26803;DHT22;14378;51.796;5.808;2023-04-15T00:05:32;10.00;99.90
26803;DHT22;14378;51.796;5.808;2023-04-15T00:07:33;10.00;99.90
26803;DHT22;14378;51.796;5.808;2023-04-15T00:09:34;10.00;99.90
26803;DHT22;14378;51.796;5.808;2023-04-15T00:11:35;10.00;99.90
26803;DHT22;14378;51.796;5.808;2023-04-15T00:13:36;9.90;99.90
26803;DHT22;14378;51.796;5.808;2023-04-15T00:15:38;9.90;99.90
26803;DHT22;14378;51.796;5.808;2023-04-15T00:17:38;9.90;99.90
26803;DHT22;14378;51.796;5.808;2023-04-15T00:19:39;9.90;99.90
26803;DHT22;14378;51.796;5.808;2023-04-15T00:21:42;9.90;99.90
26803;DHT22;14378;51.796;5.808;2023-04-15T00:23:43;9.90;99.90
26803;DHT22;14378;51.796;5.808;2023-04-15T00:25:45;9.90;99.90
26803;DHT22;14378;51.796;5.808;2023-04-15T00:27:48;9.90;99.90
26803;DHT22;14378;51.796;5.808;2023-04-15T00:29:49;9.90;99.90
26803;DHT22;14378;51.796;5.808;2023-04-15T00:31:50;9.90;99.90
26803;DHT22;14378;51.796;5.808;2023-04-15T00:33:51;9.90;99.90
26803;DHT22;14378;51.796;5.808;2023-04-15T00:35:52;9.80;99.90
26803;DHT22;14378;51.796;5.808;2023-04-15T00:37:53;9.80;99.90
26803;DHT22;14378;51.796;5.808;2023-04-15T00:39:54;9.80;99.90
26803;DHT22;14378;51.796;5.808;2023-04-15T00:41:57;9.80;99.90
26803;DHT22;14378;51.796;5.808;2023-04-15T00:43:58;9.80;99.90
26803;DHT22;14378;51.796;5.808;2023-04-15T00:46:00;9.80;99.90
26803;DHT22;14378;51.796;5.808;2023-04-15T00:48:04;9.80;99.90
26803;DHT22;14378;51.796;5.808;2023-04-15T00:50:07;9.80;99.90
26803;DHT22;14378;51.796;5.808;2023-04-15T00:52:19;9.80;99.90
26803;DHT22;14378;51.796;5.808;2023-04-15T00:54:20;9.80;99.90
26803;DHT22;14378;51.796;5.808;2023-04-15T00:56:26;9.70;99.90
26803;DHT22;14378;51.796;5.808;2023-04-15T00:58:29;9.70;99.90
26803;DHT22;14378;51.796;5.808;2023-04-15T01:00:30;9.70;99.90
26803;DHT22;14378;51.796;5.808;2023-04-15T01:02:34;9.70;99.90
26803;DHT22;14378;51.796;5.808;2023-04-15T01:04:36;9.70;99.90
26803;DHT22;14378;51.796;5.808;2023-04-15T01:06:37;9.70;99.90
26803;DHT22;14378;51.796;5.808;2023-04-15T01:08:43;9.70;99.90
26803;DHT22;14378;51.796;5.808;2023-04-15T01:10:45;9.70;99.90
26803;DHT22;14378;51.796;5.808;2023-04-15T01:12:47;9.60;99.90
26803;DHT22;14378;51.796;5.808;2023-04-15T01:14:52;9.60;99.90
26803;DHT22;14378;51.796;5.808;2023-04-15T01:16:55;9.60;99.90
26803;DHT22;14378;51.796;5.808;2023-04-15T01:18:57;9.60;99.90
26803;DHT22;14378;51.796;5.808;2023-04-15T01:21:00;9.60;99.90
26803;DHT22;14378;51.796;5.808;2023-04-15T01:23:01;9.60;99.90
26803;DHT22;14378;51.796;5.808;2023-04-15T01:25:12;9.60;99.90
26803;DHT22;14378;51.796;5.808;2023-04-15T01:27:20;9.50;99.90
26803;DHT22;14378;51.796;5.808;2023-04-15T01:29:22;9.50;99.90
26803;DHT22;14378;51.796;5.808;2023-04-15T01:31:24;9.50;99.90
26803;DHT22;14378;51.796;5.808;2023-04-15T01:33:27;9.50;99.90
26803;DHT22;14378;51.796;5.808;2023-04-15T01:35:28;9.40;99.90
26803;DHT22;14378;51.796;5.808;2023-04-15T01:37:32;9.40;99.90
26803;DHT22;14378;51.796;5.808;2023-04-15T01:39:33;9.40;99.90
26803;DHT22;14378;51.796;5.808;2023-04-15T01:41:35;9.40;99.90
26803;DHT22;14378;51.796;5.808;2023-04-15T01:43:36;9.40;99.90
26803;DHT22;14378;51.796;5.808;2023-04-15T01:45:37;9.30;99.90
26803;DHT22;14378;51.796;5.808;2023-04-15T01:47:38;9.30;99.90
26803;DHT22;14378;51.796;5.808;2023-04-15T01:49:44;9.30;99.90
26803;DHT22;14378;51.796;5.808;2023-04-15T01:51:50;9.30;99.90
26803;DHT22;14378;51.796;5.808;2023-04-15T01:53:52;9.30;99.90
26803;DHT22;14378;51.796;5.808;2023-04-15T01:55:53;9.30;99.90
26803;DHT22;14378;51.796;5.808;2023-04-15T01:57:54;9.30;99.90
26803;DHT22;14378;51.796;5.808;2023-04-15T01:59:55;9.30;99.90
26803;DHT22;14378;51.796;5.808;2023-04-15T02:01:57;9.30;99.90
26803;DHT22;14378;51.796;5.808;2023-04-15T02:04:01;9.20;99.90
26803;DHT22;14378;51.796;5.808;2023-04-15T02:06:05;9.20;99.90
26803;DHT22;14378;51.796;5.808;2023-04-15T02:08:06;9.20;99.90
26803;DHT22;14378;51.796;5.808;2023-04-15T02:10:07;9.20;99.90
26803;DHT22;14378;51.796;5.808;2023-04-15T02:12:09;9.20;99.90
26803;DHT22;14378;51.796;5.808;2023-04-15T02:14:11;9.20;99.90
26803;DHT22;14378;51.796;5.808;2023-04-15T02:16:17;9.10;99.90
26803;DHT22;14378;51.796;5.808;2023-04-15T02:18:18;9.10;99.90
26803;DHT22;14378;51.796;5.808;2023-04-15T02:20:20;9.10;99.90
26803;DHT22;14378;51.796;5.808;2023-04-15T02:22:21;9.10;99.90
26803;DHT22;14378;51.796;5.808;2023-04-15T02:24:22;9.10;99.90
26803;DHT22;14378;51.796;5.808;2023-04-15T02:26:23;9.10;99.90
26803;DHT22;14378;51.796;5.808;2023-04-15T02:28:28;9.10;99.90
26803;DHT22;14378;51.796;5.808;2023-04-15T02:30:29;9.10;99.90
26803;DHT22;14378;51.796;5.808;2023-04-15T02:32:30;9.00;99.90
26803;DHT22;14378;51.796;5.808;2023-04-15T02:34:31;9.00;99.90
26803;DHT22;14378;51.796;5.808;2023-04-15T02:36:33;9.00;99.90
26803;DHT22;14378;51.796;5.808;2023-04-15T02:38:34;8.90;99.90
26803;DHT22;14378;51.796;5.808;2023-04-15T02:40:35;9.00;99.90
26803;DHT22;14378;51.796;5.808;2023-04-15T02:42:38;8.90;99.90
26803;DHT22;14378;51.796;5.808;2023-04-15T02:44:41;8.90;99.90
26803;DHT22;14378;51.796;5.808;2023-04-15T02:46:43;8.90;99.90
26803;DHT22;14378;51.796;5.808;2023-04-15T02:48:44;8.90;99.90
26803;DHT22;14378;51.796;5.808;2023-04-15T02:50:45;8.90;99.90
26803;DHT22;14378;51.796;5.808;2023-04-15T02:52:50;8.90;99.90
26803;DHT22;14378;51.796;5.808;2023-04-15T02:54:52;8.90;99.90
26803;DHT22;14378;51.796;5.808;2023-04-15T02:56:56;8.80;99.90
26803;DHT22;14378;51.796;5.808;2023-04-15T02:59:01;8.90;99.90
26803;DHT22;14378;51.796;5.808;2023-04-15T03:01:02;8.90;99.90
26803;DHT22;14378;51.796;5.808;2023-04-15T03:03:04;8.80;99.90
26803;DHT22;14378;51.796;5.808;2023-04-15T03:05:10;8.80;99.90
26803;DHT22;14378;51.796;5.808;2023-04-15T03:07:12;8.80;99.90
26803;DHT22;14378;51.796;5.808;2023-04-15T03:09:13;8.80;99.90
26803;DHT22;14378;51.796;5.808;2023-04-15T03:11:15;8.80;99.90
26803;DHT22;14378;51.796;5.808;2023-04-15T03:13:18;8.80;99.90
26803;DHT22;14378;51.796;5.808;2023-04-15T03:15:19;8.80;99.90
26803;DHT22;14378;51.796;5.808;2023-04-15T03:17:24;8.70;99.90
26803;DHT22;14378;51.796;5.808;2023-04-15T03:19:25;8.70;99.90
26803;DHT22;14378;51.796;5.808;2023-04-15T03:21:26;8.70;99.90
26803;DHT22;14378;51.796;5.808;2023-04-15T03:23:35;8.70;99.90
26803;DHT22;14378;51.796;5.808;2023-04-15T03:25:36;8.70;99.90
26803;DHT22;14378;51.796;5.808;2023-04-15T03:27:39;8.70;99.90
26803;DHT22;14378;51.796;5.808;2023-04-15T03:29:40;8.60;99.90
26803;DHT22;14378;51.796;5.808;2023-04-15T03:31:41;8.60;99.90
26803;DHT22;14378;51.796;5.808;2023-04-15T03:33:43;8.70;99.90
26803;DHT22;14378;51.796;5.808;2023-04-15T03:35:44;8.70;99.90
26803;DHT22;14378;51.796;5.808;2023-04-15T03:37:45;8.70;99.90
26803;DHT22;14378;51.796;5.808;2023-04-15T03:39:49;8.60;99.90
26803;DHT22;14378;51.796;5.808;2023-04-15T03:41:53;8.70;99.90
26803;DHT22;14378;51.796;5.808;2023-04-15T03:43:54;8.60;99.90
26803;DHT22;14378;51.796;5.808;2023-04-15T03:45:56;8.60;99.90
26803;DHT22;14378;51.796;5.808;2023-04-15T03:47:57;8.60;99.90
26803;DHT22;14378;51.796;5.808;2023-04-15T03:49:58;8.60;99.90
26803;DHT22;14378;51.796;5.808;2023-04-15T03:52:03;8.60;99.90
26803;DHT22;14378;51.796;5.808;2023-04-15T03:54:04;8.60;99.90
26803;DHT22;14378;51.796;5.808;2023-04-15T03:56:05;8.50;99.90
26803;DHT22;14378;51.796;5.808;2023-04-15T03:58:07;8.40;99.90
26803;DHT22;14378;51.796;5.808;2023-04-15T04:00:09;8.50;99.90
26803;DHT22;14378;51.796;5.808;2023-04-15T04:02:13;8.40;99.90
26803;DHT22;14378;51.796;5.808;2023-04-15T04:04:14;8.40;99.90
26803;DHT22;14378;51.796;5.808;2023-04-15T04:06:15;8.40;99.90
26803;DHT22;14378;51.796;5.808;2023-04-15T04:08:17;8.40;99.90
26803;DHT22;14378;51.796;5.808;2023-04-15T04:10:19;8.40;99.90
26803;DHT22;14378;51.796;5.808;2023-04-15T04:12:20;8.40;99.90
26803;DHT22;14378;51.796;5.808;2023-04-15T04:14:21;8.30;99.90
26803;DHT22;14378;51.796;5.808;2023-04-15T04:16:29;8.40;99.90
26803;DHT22;14378;51.796;5.808;2023-04-15T04:18:33;8.40;99.90
26803;DHT22;14378;51.796;5.808;2023-04-15T04:20:36;8.30;99.90
26803;DHT22;14378;51.796;5.808;2023-04-15T04:22:38;8.30;99.90
26803;DHT22;14378;51.796;5.808;2023-04-15T04:24:39;8.30;99.90
26803;DHT22;14378;51.796;5.808;2023-04-15T04:26:41;8.30;99.90
26803;DHT22;14378;51.796;5.808;2023-04-15T04:28:44;8.30;99.90
26803;DHT22;14378;51.796;5.808;2023-04-15T04:30:45;8.30;99.90
26803;DHT22;14378;51.796;5.808;2023-04-15T04:32:47;8.30;99.90
26803;DHT22;14378;51.796;5.808;2023-04-15T04:34:49;8.30;99.90
26803;DHT22;14378;51.796;5.808;2023-04-15T04:36:50;8.30;99.90
26803;DHT22;14378;51.796;5.808;2023-04-15T04:38:51;8.30;99.90
26803;DHT22;14378;51.796;5.808;2023-04-15T04:40:53;8.30;99.90
26803;DHT22;14378;51.796;5.808;2023-04-15T04:42:53;8.30;99.90
26803;DHT22;14378;51.796;5.808;2023-04-15T04:44:55;8.30;99.90
26803;DHT22;14378;51.796;5.808;2023-04-15T04:46:56;8.30;99.90
26803;DHT22;14378;51.796;5.808;2023-04-15T04:48:57;8.30;99.90
26803;DHT22;14378;51.796;5.808;2023-04-15T04:50:58;8.30;99.90
26803;DHT22;14378;51.796;5.808;2023-04-15T04:53:01;8.20;99.90
26803;DHT22;14378;51.796;5.808;2023-04-15T04:55:03;8.20;99.90
26803;DHT22;14378;51.796;5.808;2023-04-15T04:57:05;8.20;99.90
26803;DHT22;14378;51.796;5.808;2023-04-15T04:59:07;8.20;99.90
26803;DHT22;14378;51.796;5.808;2023-04-15T05:01:09;8.20;99.90
26803;DHT22;14378;51.796;5.808;2023-04-15T05:03:10;8.10;99.90
26803;DHT22;14378;51.796;5.808;2023-04-15T05:05:12;8.10;99.90
26803;DHT22;14378;51.796;5.808;2023-04-15T05:07:13;8.10;99.90
26803;DHT22;14378;51.796;5.808;2023-04-15T05:09:14;8.10;99.90
26803;DHT22;14378;51.796;5.808;2023-04-15T05:11:15;8.10;99.90
26803;DHT22;14378;51.796;5.808;2023-04-15T05:13:17;8.10;99.90
26803;DHT22;14378;51.796;5.808;2023-04-15T05:15:21;8.10;99.90
26803;DHT22;14378;51.796;5.808;2023-04-15T05:17:22;8.00;99.90
26803;DHT22;14378;51.796;5.808;2023-04-15T05:19:23;8.00;99.90
26803;DHT22;14378;51.796;5.808;2023-04-15T05:21:24;8.00;99.90
26803;DHT22;14378;51.796;5.808;2023-04-15T05:23:25;8.00;99.90
26803;DHT22;14378;51.796;5.808;2023-04-15T05:25:27;8.00;99.90
26803;DHT22;14378;51.796;5.808;2023-04-15T05:27:28;8.00;99.90
26803;DHT22;14378;51.796;5.808;2023-04-15T05:30:00;8.00;99.90
26803;DHT22;14378;51.796;5.808;2023-04-15T05:32:01;8.00;99.90
26803;DHT22;14378;51.796;5.808;2023-04-15T05:34:02;8.00;99.90
26803;DHT22;14378;51.796;5.808;2023-04-15T05:36:03;8.00;99.90
26803;DHT22;14378;51.796;5.808;2023-04-15T05:38:04;8.00;99.90
26803;DHT22;14378;51.796;5.808;2023-04-15T05:40:05;8.00;99.90
26803;DHT22;14378;51.796;5.808;2023-04-15T05:42:07;8.00;99.90
26803;DHT22;14378;51.796;5.808;2023-04-15T05:44:08;8.00;99.90
26803;DHT22;14378;51.796;5.808;2023-04-15T05:46:09;8.10;99.90
26803;DHT22;14378;51.796;5.808;2023-04-15T05:48:10;8.10;99.90
26803;DHT22;14378;51.796;5.808;2023-04-15T05:50:11;8.10;99.90
26803;DHT22;14378;51.796;5.808;2023-04-15T05:52:12;8.10;99.90
26803;DHT22;14378;51.796;5.808;2023-04-15T05:54:14;8.20;99.90
26803;DHT22;14378;51.796;5.808;2023-04-15T05:56:15;8.20;99.90
26803;DHT22;14378;51.796;5.808;2023-04-15T05:58:20;8.20;99.90
26803;DHT22;14378;51.796;5.808;2023-04-15T06:00:25;8.20;99.90
26803;DHT22;14378;51.796;5.808;2023-04-15T06:02:26;8.20;99.90
26803;DHT22;14378;51.796;5.808;2023-04-15T06:04:28;8.20;99.90
26803;DHT22;14378;51.796;5.808;2023-04-15T06:06:30;8.30;99.90
26803;DHT22;14378;51.796;5.808;2023-04-15T06:08:32;8.30;99.90
26803;DHT22;14378;51.796;5.808;2023-04-15T06:10:34;8.30;99.90
26803;DHT22;14378;51.796;5.808;2023-04-15T06:12:36;8.40;99.90
26803;DHT22;14378;51.796;5.808;2023-04-15T06:14:38;8.40;99.90
26803;DHT22;14378;51.796;5.808;2023-04-15T06:16:40;8.40;99.90
26803;DHT22;14378;51.796;5.808;2023-04-15T06:18:42;8.40;99.90
26803;DHT22;14378;51.796;5.808;2023-04-15T06:20:43;8.50;99.90
26803;DHT22;14378;51.796;5.808;2023-04-15T06:22:44;8.50;99.90
26803;DHT22;14378;51.796;5.808;2023-04-15T06:24:45;8.60;99.90
26803;DHT22;14378;51.796;5.808;2023-04-15T06:26:47;8.60;99.90
26803;DHT22;14378;51.796;5.808;2023-04-15T06:28:48;8.60;99.90
26803;DHT22;14378;51.796;5.808;2023-04-15T06:30:49;8.70;99.90
26803;DHT22;14378;51.796;5.808;2023-04-15T06:32:51;8.70;99.90
26803;DHT22;14378;51.796;5.808;2023-04-15T06:34:53;8.70;99.90
26803;DHT22;14378;51.796;5.808;2023-04-15T06:36:53;8.80;99.90
26803;DHT22;14378;51.796;5.808;2023-04-15T06:38:54;8.80;99.90
26803;DHT22;14378;51.796;5.808;2023-04-15T06:40:57;8.80;99.90
26803;DHT22;14378;51.796;5.808;2023-04-15T06:43:01;8.90;99.90
26803;DHT22;14378;51.796;5.808;2023-04-15T06:45:02;8.90;99.90
26803;DHT22;14378;51.796;5.808;2023-04-15T06:47:04;8.90;99.90
26803;DHT22;14378;51.796;5.808;2023-04-15T06:49:05;9.00;99.90
26803;DHT22;14378;51.796;5.808;2023-04-15T06:51:06;9.10;99.90
26803;DHT22;14378;51.796;5.808;2023-04-15T06:53:07;9.10;99.90
26803;DHT22;14378;51.796;5.808;2023-04-15T06:55:08;9.10;99.90
26803;DHT22;14378;51.796;5.808;2023-04-15T06:57:09;9.20;99.90
26803;DHT22;14378;51.796;5.808;2023-04-15T06:59:10;9.20;99.90
26803;DHT22;14378;51.796;5.808;2023-04-15T07:01:13;9.20;99.90
26803;DHT22;14378;51.796;5.808;2023-04-15T07:03:14;9.30;99.90
26803;DHT22;14378;51.796;5.808;2023-04-15T07:05:15;9.30;99.90
26803;DHT22;14378;51.796;5.808;2023-04-15T07:07:18;9.30;99.90
26803;DHT22;14378;51.796;5.808;2023-04-15T07:09:22;9.30;99.90
26803;DHT22;14378;51.796;5.808;2023-04-15T07:11:24;9.40;99.90
26803;DHT22;14378;51.796;5.808;2023-04-15T07:13:25;9.40;99.90
26803;DHT22;14378;51.796;5.808;2023-04-15T07:15:26;9.40;99.90
26803;DHT22;14378;51.796;5.808;2023-04-15T07:17:27;9.50;99.90
26803;DHT22;14378;51.796;5.808;2023-04-15T07:19:28;9.50;99.90
26803;DHT22;14378;51.796;5.808;2023-04-15T07:21:29;9.50;99.90
26803;DHT22;14378;51.796;5.808;2023-04-15T07:23:30;9.50;99.90
26803;DHT22;14378;51.796;5.808;2023-04-15T07:25:31;9.50;99.90
26803;DHT22;14378;51.796;5.808;2023-04-15T07:27:33;9.60;99.90
26803;DHT22;14378;51.796;5.808;2023-04-15T07:29:33;9.60;99.90
26803;DHT22;14378;51.796;5.808;2023-04-15T07:31:35;9.70;99.90
26803;DHT22;14378;51.796;5.808;2023-04-15T07:33:36;9.70;99.90
26803;DHT22;14378;51.796;5.808;2023-04-15T07:35:37;9.70;99.90
26803;DHT22;14378;51.796;5.808;2023-04-15T07:37:38;9.70;99.90
26803;DHT22;14378;51.796;5.808;2023-04-15T07:39:39;9.70;99.90
26803;DHT22;14378;51.796;5.808;2023-04-15T07:41:40;9.70;99.90
26803;DHT22;14378;51.796;5.808;2023-04-15T07:43:41;9.70;99.90
26803;DHT22;14378;51.796;5.808;2023-04-15T07:45:43;9.80;99.90
26803;DHT22;14378;51.796;5.808;2023-04-15T07:47:47;9.80;99.90
26803;DHT22;14378;51.796;5.808;2023-04-15T07:49:48;9.80;99.90
26803;DHT22;14378;51.796;5.808;2023-04-15T07:51:51;9.80;99.90
26803;DHT22;14378;51.796;5.808;2023-04-15T07:53:52;9.90;99.90
26803;DHT22;14378;51.796;5.808;2023-04-15T07:55:53;9.90;99.90
26803;DHT22;14378;51.796;5.808;2023-04-15T07:57:54;9.90;99.90
26803;DHT22;14378;51.796;5.808;2023-04-15T07:59:56;10.00;99.90
26803;DHT22;14378;51.796;5.808;2023-04-15T08:01:57;10.00;99.90
26803;DHT22;14378;51.796;5.808;2023-04-15T08:04:00;10.00;99.90
26803;DHT22;14378;51.796;5.808;2023-04-15T08:06:02;10.00;99.90
26803;DHT22;14378;51.796;5.808;2023-04-15T08:08:04;10.10;99.90
26803;DHT22;14378;51.796;5.808;2023-04-15T08:10:05;10.20;99.90
26803;DHT22;14378;51.796;5.808;2023-04-15T08:12:07;10.30;99.90
26803;DHT22;14378;51.796;5.808;2023-04-15T08:14:09;10.30;99.90
26803;DHT22;14378;51.796;5.808;2023-04-15T08:16:19;10.40;99.90
26803;DHT22;14378;51.796;5.808;2023-04-15T08:18:22;10.50;99.90
26803;DHT22;14378;51.796;5.808;2023-04-15T08:20:24;10.60;99.90
26803;DHT22;14378;51.796;5.808;2023-04-15T08:22:25;10.70;99.90
26803;DHT22;14378;51.796;5.808;2023-04-15T08:24:26;10.80;99.90
26803;DHT22;14378;51.796;5.808;2023-04-15T08:26:27;10.90;99.90
26803;DHT22;14378;51.796;5.808;2023-04-15T08:28:28;11.00;99.90
26803;DHT22;14378;51.796;5.808;2023-04-15T08:30:29;11.20;99.90
26803;DHT22;14378;51.796;5.808;2023-04-15T08:32:30;11.30;99.90
26803;DHT22;14378;51.796;5.808;2023-04-15T08:34:31;11.40;99.90
26803;DHT22;14378;51.796;5.808;2023-04-15T08:36:32;11.60;99.90
26803;DHT22;14378;51.796;5.808;2023-04-15T08:38:34;11.70;99.90
26803;DHT22;14378;51.796;5.808;2023-04-15T08:40:44;11.80;99.90
26803;DHT22;14378;51.796;5.808;2023-04-15T08:42:48;11.90;99.90
26803;DHT22;14378;51.796;5.808;2023-04-15T08:44:59;12.00;99.90
26803;DHT22;14378;51.796;5.808;2023-04-15T08:47:06;12.10;99.90
26803;DHT22;14378;51.796;5.808;2023-04-15T08:49:10;12.20;99.90
26803;DHT22;14378;51.796;5.808;2023-04-15T08:51:16;12.30;99.90
26803;DHT22;14378;51.796;5.808;2023-04-15T08:53:28;12.50;99.90
26803;DHT22;14378;51.796;5.808;2023-04-15T08:55:32;12.50;99.90
26803;DHT22;14378;51.796;5.808;2023-04-15T08:57:36;12.60;99.90
26803;DHT22;14378;51.796;5.808;2023-04-15T08:59:38;12.70;99.90
26803;DHT22;14378;51.796;5.808;2023-04-15T09:01:40;12.80;99.90
26803;DHT22;14378;51.796;5.808;2023-04-15T09:03:41;12.90;99.90
26803;DHT22;14378;51.796;5.808;2023-04-15T09:05:49;13.10;99.90
26803;DHT22;14378;51.796;5.808;2023-04-15T09:07:57;13.20;99.90
26803;DHT22;14378;51.796;5.808;2023-04-15T09:09:58;13.20;99.90
26803;DHT22;14378;51.796;5.808;2023-04-15T09:12:01;13.30;99.90
26803;DHT22;14378;51.796;5.808;2023-04-15T09:14:02;13.40;99.90
26803;DHT22;14378;51.796;5.808;2023-04-15T09:16:05;13.50;99.90
26803;DHT22;14378;51.796;5.808;2023-04-15T09:18:06;13.60;99.90
26803;DHT22;14378;51.796;5.808;2023-04-15T09:20:14;13.70;99.90
26803;DHT22;14378;51.796;5.808;2023-04-15T09:22:16;13.70;99.90
26803;DHT22;14378;51.796;5.808;2023-04-15T09:24:20;13.80;99.90
26803;DHT22;14378;51.796;5.808;2023-04-15T09:26:35;13.90;99.90
26803;DHT22;14378;51.796;5.808;2023-04-15T09:28:42;14.00;99.90
26803;DHT22;14378;51.796;5.808;2023-04-15T09:30:43;14.10;99.90
26803;DHT22;14378;51.796;5.808;2023-04-15T09:32:56;14.20;99.90
26803;DHT22;14378;51.796;5.808;2023-04-15T09:34:57;14.30;99.90
26803;DHT22;14378;51.796;5.808;2023-04-15T09:37:12;14.40;99.90
26803;DHT22;14378;51.796;5.808;2023-04-15T09:39:17;14.50;99.90
26803;DHT22;14378;51.796;5.808;2023-04-15T09:41:18;14.60;99.90
26803;DHT22;14378;51.796;5.808;2023-04-15T09:43:19;14.70;99.90
26803;DHT22;14378;51.796;5.808;2023-04-15T09:45:27;14.80;99.90
26803;DHT22;14378;51.796;5.808;2023-04-15T09:47:29;15.00;99.90
26803;DHT22;14378;51.796;5.808;2023-04-15T09:49:33;15.20;99.90
26803;DHT22;14378;51.796;5.808;2023-04-15T09:51:34;15.30;99.90
26803;DHT22;14378;51.796;5.808;2023-04-15T09:53:36;15.50;99.90
26803;DHT22;14378;51.796;5.808;2023-04-15T09:55:38;15.70;99.90
26803;DHT22;14378;51.796;5.808;2023-04-15T09:57:39;15.80;99.90
26803;DHT22;14378;51.796;5.808;2023-04-15T09:59:50;16.00;99.90
26803;DHT22;14378;51.796;5.808;2023-04-15T10:01:52;16.20;99.90
26803;DHT22;14378;51.796;5.808;2023-04-15T10:03:54;16.30;99.90
26803;DHT22;14378;51.796;5.808;2023-04-15T10:05:58;16.40;99.90
26803;DHT22;14378;51.796;5.808;2023-04-15T10:07:59;16.50;99.90
26803;DHT22;14378;51.796;5.808;2023-04-15T10:10:02;16.60;99.90
26803;DHT22;14378;51.796;5.808;2023-04-15T10:12:04;16.70;99.90
26803;DHT22;14378;51.796;5.808;2023-04-15T10:14:06;16.70;99.90
26803;DHT22;14378;51.796;5.808;2023-04-15T10:16:14;16.80;99.90
26803;DHT22;14378;51.796;5.808;2023-04-15T10:18:19;16.90;99.90
26803;DHT22;14378;51.796;5.808;2023-04-15T10:20:27;17.00;99.90
26803;DHT22;14378;51.796;5.808;2023-04-15T10:22:29;17.00;99.90
26803;DHT22;14378;51.796;5.808;2023-04-15T10:24:31;17.10;99.90
26803;DHT22;14378;51.796;5.808;2023-04-15T10:26:33;17.10;99.90
26803;DHT22;14378;51.796;5.808;2023-04-15T10:28:34;17.10;99.90
26803;DHT22;14378;51.796;5.808;2023-04-15T10:30:35;17.10;99.90
26803;DHT22;14378;51.796;5.808;2023-04-15T10:32:37;17.10;99.90
26803;DHT22;14378;51.796;5.808;2023-04-15T10:34:43;17.20;99.90
26803;DHT22;14378;51.796;5.808;2023-04-15T10:36:45;17.30;99.90
26803;DHT22;14378;51.796;5.808;2023-04-15T10:38:48;17.30;99.90
26803;DHT22;14378;51.796;5.808;2023-04-15T10:40:50;17.40;99.90
26803;DHT22;14378;51.796;5.808;2023-04-15T10:42:55;17.40;99.90
26803;DHT22;14378;51.796;5.808;2023-04-15T10:44:57;17.40;99.90
26803;DHT22;14378;51.796;5.808;2023-04-15T10:47:14;17.50;99.90
26803;DHT22;14378;51.796;5.808;2023-04-15T10:49:25;17.40;99.90
26803;DHT22;14378;51.796;5.808;2023-04-15T10:51:30;17.50;99.90
26803;DHT22;14378;51.796;5.808;2023-04-15T10:53:32;17.60;99.90
26803;DHT22;14378;51.796;5.808;2023-04-15T10:55:33;17.70;99.90
26803;DHT22;14378;51.796;5.808;2023-04-15T10:57:37;17.80;99.90
26803;DHT22;14378;51.796;5.808;2023-04-15T11:02:05;17.80;99.70
26803;DHT22;14378;51.796;5.808;2023-04-15T11:04:06;17.90;99.90
26803;DHT22;14378;51.796;5.808;2023-04-15T11:06:07;18.00;99.90
26803;DHT22;14378;51.796;5.808;2023-04-15T11:08:09;18.10;99.80
26803;DHT22;14378;51.796;5.808;2023-04-15T11:12:34;18.10;99.10
26803;DHT22;14378;51.796;5.808;2023-04-15T11:14:39;18.20;99.90
26803;DHT22;14378;51.796;5.808;2023-04-15T11:16:43;18.30;99.50
26803;DHT22;14378;51.796;5.808;2023-04-15T11:18:57;18.30;99.30
26803;DHT22;14378;51.796;5.808;2023-04-15T11:21:00;18.40;99.10
26803;DHT22;14378;51.796;5.808;2023-04-15T11:23:01;18.50;99.80
26803;DHT22;14378;51.796;5.808;2023-04-15T11:25:02;18.50;99.30
26803;DHT22;14378;51.796;5.808;2023-04-15T11:27:04;18.50;99.90
26803;DHT22;14378;51.796;5.808;2023-04-15T11:29:05;18.40;99.50
26803;DHT22;14378;51.796;5.808;2023-04-15T11:31:11;18.50;98.90
26803;DHT22;14378;51.796;5.808;2023-04-15T11:33:14;18.60;99.40
26803;DHT22;14378;51.796;5.808;2023-04-15T11:35:18;18.70;99.90
26803;DHT22;14378;51.796;5.808;2023-04-15T11:37:30;18.70;99.10
26803;DHT22;14378;51.796;5.808;2023-04-15T11:39:32;18.90;98.90
26803;DHT22;14378;51.796;5.808;2023-04-15T11:41:34;19.00;99.20
26803;DHT22;14378;51.796;5.808;2023-04-15T11:43:37;19.20;99.80
26803;DHT22;14378;51.796;5.808;2023-04-15T11:46:00;19.40;98.90
26803;DHT22;14378;51.796;5.808;2023-04-15T11:52:17;19.90;98.80
26803;DHT22;14378;51.796;5.808;2023-04-15T11:54:18;20.10;98.20
26803;DHT22;14378;51.796;5.808;2023-04-15T11:56:24;20.10;97.30
26803;DHT22;14378;51.796;5.808;2023-04-15T11:58:29;20.20;96.50
26803;DHT22;14378;51.796;5.808;2023-04-15T12:00:34;20.10;96.60
26803;DHT22;14378;51.796;5.808;2023-04-15T12:02:36;20.20;97.20
26803;DHT22;14378;51.796;5.808;2023-04-15T12:04:37;20.30;96.90
26803;DHT22;14378;51.796;5.808;2023-04-15T12:06:38;20.50;96.80
26803;DHT22;14378;51.796;5.808;2023-04-15T12:10:58;20.80;96.40
26803;DHT22;14378;51.796;5.808;2023-04-15T12:12:59;21.00;95.70
26803;DHT22;14378;51.796;5.808;2023-04-15T12:15:00;21.10;95.20
26803;DHT22;14378;51.796;5.808;2023-04-15T12:17:02;20.90;94.80
26803;DHT22;14378;51.796;5.808;2023-04-15T12:19:06;20.80;94.90
26803;DHT22;14378;51.796;5.808;2023-04-15T12:21:09;20.90;95.90
26803;DHT22;14378;51.796;5.808;2023-04-15T12:23:10;21.00;96.50
26803;DHT22;14378;51.796;5.808;2023-04-15T12:25:11;21.00;95.60
26803;DHT22;14378;51.796;5.808;2023-04-15T12:27:15;21.10;96.00
26803;DHT22;14378;51.796;5.808;2023-04-15T12:29:19;21.50;95.20
26803;DHT22;14378;51.796;5.808;2023-04-15T12:31:20;21.70;94.80
26803;DHT22;14378;51.796;5.808;2023-04-15T12:33:23;21.70;94.20
26803;DHT22;14378;51.796;5.808;2023-04-15T12:35:32;21.60;94.20
26803;DHT22;14378;51.796;5.808;2023-04-15T12:37:33;21.30;93.50
26803;DHT22;14378;51.796;5.808;2023-04-15T12:39:34;21.20;94.00
26803;DHT22;14378;51.796;5.808;2023-04-15T12:41:35;21.10;94.40
26803;DHT22;14378;51.796;5.808;2023-04-15T12:43:37;21.20;94.30
26803;DHT22;14378;51.796;5.808;2023-04-15T12:45:38;21.20;95.20
26803;DHT22;14378;51.796;5.808;2023-04-15T12:47:42;21.20;94.80
26803;DHT22;14378;51.796;5.808;2023-04-15T12:49:43;21.10;94.90
26803;DHT22;14378;51.796;5.808;2023-04-15T12:51:44;20.90;93.90
26803;DHT22;14378;51.796;5.808;2023-04-15T12:53:45;21.00;94.30
26803;DHT22;14378;51.796;5.808;2023-04-15T12:55:47;21.10;94.70
26803;DHT22;14378;51.796;5.808;2023-04-15T12:57:49;21.30;95.70
26803;DHT22;14378;51.796;5.808;2023-04-15T12:59:50;21.50;95.00
26803;DHT22;14378;51.796;5.808;2023-04-15T13:01:51;21.70;94.90
26803;DHT22;14378;51.796;5.808;2023-04-15T13:03:53;21.80;95.10
26803;DHT22;14378;51.796;5.808;2023-04-15T13:05:54;21.90;94.30
26803;DHT22;14378;51.796;5.808;2023-04-15T13:07:57;22.20;93.90
26803;DHT22;14378;51.796;5.808;2023-04-15T13:09:58;22.10;93.00
26803;DHT22;14378;51.796;5.808;2023-04-15T13:12:00;21.90;93.90
26803;DHT22;14378;51.796;5.808;2023-04-15T13:14:02;21.90;93.80
26803;DHT22;14378;51.796;5.808;2023-04-15T13:16:04;21.80;94.20
26803;DHT22;14378;51.796;5.808;2023-04-15T13:18:07;21.80;93.70